sensor_id;sensor_type;location;lat;lon;timestamp;P1;durP1;ratioP1;P2;durP2;ratioP2
76463;SDS011;65301;46.666;20.110;2024-02-28T00:02:42;12.00;;;6.47;;
76463;SDS011;65301;46.666;20.110;2024-02-28T00:05:44;12.60;;;5.70;;
76463;SDS011;65301;46.666;20.110;2024-02-28T00:08:47;12.17;;;6.37;;
76463;SDS011;65301;46.666;20.110;2024-02-28T00:11:49;13.80;;;5.80;;
76463;SDS011;65301;46.666;20.110;2024-02-28T00:14:51;13.18;;;5.97;;
76463;SDS011;65301;46.666;20.110;2024-02-28T00:17:53;9.43;;;6.03;;
76463;SDS011;65301;46.666;20.110;2024-02-28T00:20:56;15.40;;;6.72;;
76463;SDS011;65301;46.666;20.110;2024-02-28T00:23:58;11.63;;;6.43;;
76463;SDS011;65301;46.666;20.110;2024-02-28T00:26:59;14.63;;;6.30;;
76463;SDS011;65301;46.666;20.110;2024-02-28T00:30:05;11.25;;;6.32;;
76463;SDS011;65301;46.666;20.110;2024-02-28T00:33:08;16.15;;;6.53;;
76463;SDS011;65301;46.666;20.110;2024-02-28T00:36:10;14.18;;;5.90;;
76463;SDS011;65301;46.666;20.110;2024-02-28T00:39:12;13.03;;;6.23;;
76463;SDS011;65301;46.666;20.110;2024-02-28T00:42:13;10.40;;;5.93;;
76463;SDS011;65301;46.666;20.110;2024-02-28T00:45:15;9.80;;;5.85;;
76463;SDS011;65301;46.666;20.110;2024-02-28T00:48:18;16.02;;;5.97;;
76463;SDS011;65301;46.666;20.110;2024-02-28T00:51:19;12.15;;;6.30;;
76463;SDS011;65301;46.666;20.110;2024-02-28T00:54:21;10.50;;;5.63;;
76463;SDS011;65301;46.666;20.110;2024-02-28T00:57:25;11.10;;;5.70;;
76463;SDS011;65301;46.666;20.110;2024-02-28T01:00:27;14.50;;;6.25;;
76463;SDS011;65301;46.666;20.110;2024-02-28T01:03:29;12.75;;;5.95;;
76463;SDS011;65301;46.666;20.110;2024-02-28T01:06:31;11.63;;;5.65;;
76463;SDS011;65301;46.666;20.110;2024-02-28T01:09:32;10.67;;;5.30;;
76463;SDS011;65301;46.666;20.110;2024-02-28T01:12:34;11.47;;;5.80;;
76463;SDS011;65301;46.666;20.110;2024-02-28T01:15:37;12.30;;;5.75;;
76463;SDS011;65301;46.666;20.110;2024-02-28T01:18:40;12.10;;;6.15;;
76463;SDS011;65301;46.666;20.110;2024-02-28T01:21:42;11.63;;;5.38;;
76463;SDS011;65301;46.666;20.110;2024-02-28T01:24:44;10.47;;;5.63;;
76463;SDS011;65301;46.666;20.110;2024-02-28T01:27:46;15.47;;;5.73;;
76463;SDS011;65301;46.666;20.110;2024-02-28T01:30:48;10.80;;;5.68;;
76463;SDS011;65301;46.666;20.110;2024-02-28T01:33:50;12.50;;;5.72;;
76463;SDS011;65301;46.666;20.110;2024-02-28T01:36:52;9.93;;;6.03;;
76463;SDS011;65301;46.666;20.110;2024-02-28T01:39:54;14.80;;;6.67;;
76463;SDS011;65301;46.666;20.110;2024-02-28T01:43:30;12.30;;;6.50;;
76463;SDS011;65301;46.666;20.110;2024-02-28T01:46:27;11.10;;;5.95;;
76463;SDS011;65301;46.666;20.110;2024-02-28T01:49:30;13.93;;;6.63;;
76463;SDS011;65301;46.666;20.110;2024-02-28T01:52:31;13.88;;;6.60;;
76463;SDS011;65301;46.666;20.110;2024-02-28T01:55:34;11.07;;;6.63;;
76463;SDS011;65301;46.666;20.110;2024-02-28T01:58:39;11.40;;;6.13;;
76463;SDS011;65301;46.666;20.110;2024-02-28T02:01:41;12.50;;;6.22;;
76463;SDS011;65301;46.666;20.110;2024-02-28T02:04:43;16.90;;;6.38;;
76463;SDS011;65301;46.666;20.110;2024-02-28T02:07:45;11.38;;;5.78;;
76463;SDS011;65301;46.666;20.110;2024-02-28T02:10:48;11.37;;;6.00;;
76463;SDS011;65301;46.666;20.110;2024-02-28T02:13:50;10.40;;;6.07;;
76463;SDS011;65301;46.666;20.110;2024-02-28T02:16:53;9.50;;;5.53;;
76463;SDS011;65301;46.666;20.110;2024-02-28T02:19:54;11.80;;;5.90;;
76463;SDS011;65301;46.666;20.110;2024-02-28T02:22:56;8.98;;;5.43;;
76463;SDS011;65301;46.666;20.110;2024-02-28T02:25:59;15.17;;;6.37;;
76463;SDS011;65301;46.666;20.110;2024-02-28T02:29:00;15.03;;;6.07;;
76463;SDS011;65301;46.666;20.110;2024-02-28T02:32:02;10.13;;;5.47;;
76463;SDS011;65301;46.666;20.110;2024-02-28T02:35:04;8.70;;;5.60;;
76463;SDS011;65301;46.666;20.110;2024-02-28T02:38:06;11.45;;;5.65;;
76463;SDS011;65301;46.666;20.110;2024-02-28T02:41:08;11.80;;;6.17;;
76463;SDS011;65301;46.666;20.110;2024-02-28T02:44:10;12.00;;;6.23;;
76463;SDS011;65301;46.666;20.110;2024-02-28T02:47:12;13.75;;;5.80;;
76463;SDS011;65301;46.666;20.110;2024-02-28T02:50:13;14.93;;;6.35;;
76463;SDS011;65301;46.666;20.110;2024-02-28T02:53:15;13.63;;;5.55;;
76463;SDS011;65301;46.666;20.110;2024-02-28T02:56:17;13.03;;;5.17;;
76463;SDS011;65301;46.666;20.110;2024-02-28T02:59:19;12.83;;;6.20;;
76463;SDS011;65301;46.666;20.110;2024-02-28T03:02:22;14.88;;;6.35;;
76463;SDS011;65301;46.666;20.110;2024-02-28T03:05:24;41.15;;;19.02;;
76463;SDS011;65301;46.666;20.110;2024-02-28T03:08:26;32.15;;;18.38;;
76463;SDS011;65301;46.666;20.110;2024-02-28T03:11:28;16.13;;;11.00;;
76463;SDS011;65301;46.666;20.110;2024-02-28T03:14:30;14.90;;;8.17;;
76463;SDS011;65301;46.666;20.110;2024-02-28T03:17:32;13.68;;;7.38;;
76463;SDS011;65301;46.666;20.110;2024-02-28T03:20:33;15.23;;;6.90;;
76463;SDS011;65301;46.666;20.110;2024-02-28T03:23:36;10.57;;;5.53;;
76463;SDS011;65301;46.666;20.110;2024-02-28T03:26:37;13.67;;;5.77;;
76463;SDS011;65301;46.666;20.110;2024-02-28T03:29:39;8.53;;;5.33;;
76463;SDS011;65301;46.666;20.110;2024-02-28T03:32:41;10.65;;;5.63;;
76463;SDS011;65301;46.666;20.110;2024-02-28T03:35:43;9.95;;;5.93;;
76463;SDS011;65301;46.666;20.110;2024-02-28T03:38:45;10.63;;;5.28;;
76463;SDS011;65301;46.666;20.110;2024-02-28T03:41:46;10.87;;;5.60;;
76463;SDS011;65301;46.666;20.110;2024-02-28T03:44:48;13.70;;;5.87;;
76463;SDS011;65301;46.666;20.110;2024-02-28T03:47:50;10.35;;;5.75;;
76463;SDS011;65301;46.666;20.110;2024-02-28T03:50:52;10.82;;;5.80;;
76463;SDS011;65301;46.666;20.110;2024-02-28T03:53:54;12.10;;;5.38;;
76463;SDS011;65301;46.666;20.110;2024-02-28T03:56:55;12.40;;;6.07;;
76463;SDS011;65301;46.666;20.110;2024-02-28T03:59:57;12.33;;;6.13;;
76463;SDS011;65301;46.666;20.110;2024-02-28T04:02:59;9.68;;;6.00;;
76463;SDS011;65301;46.666;20.110;2024-02-28T04:06:01;15.98;;;5.80;;
76463;SDS011;65301;46.666;20.110;2024-02-28T04:09:02;11.48;;;5.82;;
76463;SDS011;65301;46.666;20.110;2024-02-28T04:12:05;13.23;;;5.60;;
76463;SDS011;65301;46.666;20.110;2024-02-28T04:15:07;10.83;;;5.30;;
76463;SDS011;65301;46.666;20.110;2024-02-28T04:18:12;8.70;;;5.32;;
76463;SDS011;65301;46.666;20.110;2024-02-28T04:21:14;12.05;;;6.38;;
76463;SDS011;65301;46.666;20.110;2024-02-28T04:24:15;12.23;;;5.70;;
76463;SDS011;65301;46.666;20.110;2024-02-28T04:27:18;13.87;;;6.27;;
76463;SDS011;65301;46.666;20.110;2024-02-28T04:30:20;11.90;;;6.30;;
76463;SDS011;65301;46.666;20.110;2024-02-28T04:33:22;13.80;;;5.93;;
76463;SDS011;65301;46.666;20.110;2024-02-28T04:36:24;11.70;;;5.88;;
76463;SDS011;65301;46.666;20.110;2024-02-28T04:39:26;11.45;;;6.45;;
76463;SDS011;65301;46.666;20.110;2024-02-28T04:42:28;11.00;;;5.97;;
76463;SDS011;65301;46.666;20.110;2024-02-28T04:45:29;11.20;;;5.83;;
76463;SDS011;65301;46.666;20.110;2024-02-28T04:48:31;14.05;;;6.10;;
76463;SDS011;65301;46.666;20.110;2024-02-28T04:51:33;12.88;;;6.80;;
76463;SDS011;65301;46.666;20.110;2024-02-28T04:54:35;10.95;;;5.43;;
76463;SDS011;65301;46.666;20.110;2024-02-28T04:57:37;13.67;;;5.83;;
76463;SDS011;65301;46.666;20.110;2024-02-28T05:00:39;11.03;;;5.83;;
76463;SDS011;65301;46.666;20.110;2024-02-28T05:03:41;13.65;;;5.78;;
76463;SDS011;65301;46.666;20.110;2024-02-28T05:06:43;12.65;;;6.15;;
76463;SDS011;65301;46.666;20.110;2024-02-28T05:09:45;10.32;;;6.13;;
76463;SDS011;65301;46.666;20.110;2024-02-28T05:12:47;10.93;;;6.47;;
76463;SDS011;65301;46.666;20.110;2024-02-28T05:15:49;14.90;;;6.20;;
76463;SDS011;65301;46.666;20.110;2024-02-28T05:18:50;15.25;;;6.63;;
76463;SDS011;65301;46.666;20.110;2024-02-28T05:21:52;16.40;;;7.43;;
76463;SDS011;65301;46.666;20.110;2024-02-28T05:24:54;12.98;;;6.57;;
76463;SDS011;65301;46.666;20.110;2024-02-28T05:27:56;13.33;;;6.23;;
76463;SDS011;65301;46.666;20.110;2024-02-28T05:30:58;14.83;;;6.67;;
76463;SDS011;65301;46.666;20.110;2024-02-28T05:34:01;10.82;;;6.47;;
76463;SDS011;65301;46.666;20.110;2024-02-28T05:37:03;15.25;;;7.05;;
76463;SDS011;65301;46.666;20.110;2024-02-28T05:40:06;33.78;;;17.15;;
76463;SDS011;65301;46.666;20.110;2024-02-28T05:43:09;49.47;;;22.13;;
76463;SDS011;65301;46.666;20.110;2024-02-28T05:46:10;18.57;;;7.70;;
76463;SDS011;65301;46.666;20.110;2024-02-28T05:49:12;14.45;;;7.45;;
76463;SDS011;65301;46.666;20.110;2024-02-28T05:52:14;12.63;;;6.68;;
76463;SDS011;65301;46.666;20.110;2024-02-28T05:55:17;12.82;;;6.47;;
76463;SDS011;65301;46.666;20.110;2024-02-28T05:58:19;16.23;;;6.87;;
76463;SDS011;65301;46.666;20.110;2024-02-28T06:01:21;15.17;;;7.87;;
76463;SDS011;65301;46.666;20.110;2024-02-28T06:04:23;18.50;;;6.93;;
76463;SDS011;65301;46.666;20.110;2024-02-28T06:07:25;14.45;;;6.22;;
76463;SDS011;65301;46.666;20.110;2024-02-28T06:10:27;13.23;;;6.75;;
76463;SDS011;65301;46.666;20.110;2024-02-28T06:13:30;13.67;;;6.57;;
76463;SDS011;65301;46.666;20.110;2024-02-28T06:16:32;13.17;;;7.13;;
76463;SDS011;65301;46.666;20.110;2024-02-28T06:19:36;23.13;;;11.90;;
76463;SDS011;65301;46.666;20.110;2024-02-28T06:22:38;17.30;;;8.70;;
76463;SDS011;65301;46.666;20.110;2024-02-28T06:25:40;14.40;;;6.47;;
76463;SDS011;65301;46.666;20.110;2024-02-28T06:28:45;13.93;;;6.23;;
76463;SDS011;65301;46.666;20.110;2024-02-28T06:31:51;12.50;;;6.60;;
76463;SDS011;65301;46.666;20.110;2024-02-28T06:34:53;16.75;;;7.30;;
76463;SDS011;65301;46.666;20.110;2024-02-28T06:37:55;18.58;;;7.65;;
76463;SDS011;65301;46.666;20.110;2024-02-28T06:40:57;14.55;;;6.72;;
76463;SDS011;65301;46.666;20.110;2024-02-28T06:43:58;10.93;;;5.97;;
76463;SDS011;65301;46.666;20.110;2024-02-28T06:47:00;11.93;;;6.57;;
76463;SDS011;65301;46.666;20.110;2024-02-28T06:50:05;12.50;;;6.40;;
76463;SDS011;65301;46.666;20.110;2024-02-28T06:53:08;11.68;;;6.22;;
76463;SDS011;65301;46.666;20.110;2024-02-28T06:56:10;9.82;;;6.50;;
76463;SDS011;65301;46.666;20.110;2024-02-28T06:59:12;17.27;;;7.47;;
76463;SDS011;65301;46.666;20.110;2024-02-28T07:02:14;11.03;;;5.37;;
76463;SDS011;65301;46.666;20.110;2024-02-28T07:05:16;12.05;;;6.65;;
76463;SDS011;65301;46.666;20.110;2024-02-28T07:08:20;10.85;;;6.05;;
76463;SDS011;65301;46.666;20.110;2024-02-28T07:11:24;12.77;;;6.78;;
76463;SDS011;65301;46.666;20.110;2024-02-28T07:14:26;15.27;;;6.33;;
76463;SDS011;65301;46.666;20.110;2024-02-28T07:17:29;14.20;;;6.40;;
76463;SDS011;65301;46.666;20.110;2024-02-28T07:20:40;13.48;;;6.18;;
76463;SDS011;65301;46.666;20.110;2024-02-28T07:24:03;13.10;;;5.68;;
76463;SDS011;65301;46.666;20.110;2024-02-28T07:27:07;9.38;;;5.97;;
76463;SDS011;65301;46.666;20.110;2024-02-28T07:30:09;15.53;;;7.00;;
76463;SDS011;65301;46.666;20.110;2024-02-28T07:33:13;16.20;;;7.00;;
76463;SDS011;65301;46.666;20.110;2024-02-28T07:36:15;13.68;;;6.13;;
76463;SDS011;65301;46.666;20.110;2024-02-28T07:39:17;16.92;;;6.25;;
76463;SDS011;65301;46.666;20.110;2024-02-28T07:42:20;9.73;;;5.88;;
76463;SDS011;65301;46.666;20.110;2024-02-28T07:45:24;14.83;;;6.30;;
76463;SDS011;65301;46.666;20.110;2024-02-28T07:48:26;13.30;;;5.33;;
76463;SDS011;65301;46.666;20.110;2024-02-28T07:51:28;12.80;;;6.55;;
76463;SDS011;65301;46.666;20.110;2024-02-28T07:54:30;15.85;;;6.78;;
76463;SDS011;65301;46.666;20.110;2024-02-28T07:57:32;13.38;;;6.20;;
76463;SDS011;65301;46.666;20.110;2024-02-28T08:00:35;16.03;;;5.90;;
76463;SDS011;65301;46.666;20.110;2024-02-28T08:03:37;10.10;;;6.20;;
76463;SDS011;65301;46.666;20.110;2024-02-28T08:06:40;15.73;;;6.30;;
76463;SDS011;65301;46.666;20.110;2024-02-28T08:09:42;9.05;;;5.40;;
76463;SDS011;65301;46.666;20.110;2024-02-28T08:12:44;11.85;;;5.22;;
76463;SDS011;65301;46.666;20.110;2024-02-28T08:15:46;14.00;;;6.70;;
76463;SDS011;65301;46.666;20.110;2024-02-28T08:18:48;9.63;;;5.63;;
76463;SDS011;65301;46.666;20.110;2024-02-28T08:21:49;17.08;;;6.25;;
76463;SDS011;65301;46.666;20.110;2024-02-28T08:24:51;10.85;;;6.20;;
76463;SDS011;65301;46.666;20.110;2024-02-28T08:27:53;11.50;;;6.30;;
76463;SDS011;65301;46.666;20.110;2024-02-28T08:30:55;16.67;;;5.97;;
76463;SDS011;65301;46.666;20.110;2024-02-28T08:33:57;9.53;;;5.50;;
76463;SDS011;65301;46.666;20.110;2024-02-28T08:36:59;14.30;;;6.65;;
76463;SDS011;65301;46.666;20.110;2024-02-28T08:40:01;14.77;;;6.55;;
76463;SDS011;65301;46.666;20.110;2024-02-28T08:43:03;13.85;;;7.03;;
76463;SDS011;65301;46.666;20.110;2024-02-28T08:46:05;14.63;;;6.27;;
76463;SDS011;65301;46.666;20.110;2024-02-28T08:49:07;11.87;;;6.30;;
76463;SDS011;65301;46.666;20.110;2024-02-28T08:52:10;15.65;;;7.90;;
76463;SDS011;65301;46.666;20.110;2024-02-28T08:55:12;9.60;;;6.70;;
76463;SDS011;65301;46.666;20.110;2024-02-28T08:58:14;15.90;;;6.60;;
76463;SDS011;65301;46.666;20.110;2024-02-28T09:01:16;13.47;;;7.00;;
76463;SDS011;65301;46.666;20.110;2024-02-28T09:04:18;11.70;;;6.27;;
76463;SDS011;65301;46.666;20.110;2024-02-28T09:07:20;14.25;;;7.15;;
76463;SDS011;65301;46.666;20.110;2024-02-28T09:10:22;13.63;;;6.55;;
76463;SDS011;65301;46.666;20.110;2024-02-28T09:13:28;14.55;;;6.97;;
76463;SDS011;65301;46.666;20.110;2024-02-28T09:16:29;11.83;;;6.87;;
76463;SDS011;65301;46.666;20.110;2024-02-28T09:19:31;13.40;;;7.27;;
76463;SDS011;65301;46.666;20.110;2024-02-28T09:22:33;21.85;;;6.90;;
76463;SDS011;65301;46.666;20.110;2024-02-28T09:25:36;17.35;;;7.40;;
76463;SDS011;65301;46.666;20.110;2024-02-28T09:28:38;14.77;;;6.45;;
76463;SDS011;65301;46.666;20.110;2024-02-28T09:31:40;15.10;;;7.37;;
76463;SDS011;65301;46.666;20.110;2024-02-28T09:34:42;11.60;;;6.80;;
76463;SDS011;65301;46.666;20.110;2024-02-28T09:37:43;13.88;;;6.95;;
76463;SDS011;65301;46.666;20.110;2024-02-28T09:40:46;27.98;;;15.90;;
76463;SDS011;65301;46.666;20.110;2024-02-28T09:43:51;11.10;;;7.28;;
76463;SDS011;65301;46.666;20.110;2024-02-28T09:46:53;14.10;;;8.50;;
76463;SDS011;65301;46.666;20.110;2024-02-28T09:49:54;14.90;;;8.00;;
76463;SDS011;65301;46.666;20.110;2024-02-28T09:53:00;16.83;;;7.88;;
76463;SDS011;65301;46.666;20.110;2024-02-28T09:56:11;12.02;;;6.47;;
76463;SDS011;65301;46.666;20.110;2024-02-28T09:59:13;12.65;;;6.80;;
76463;SDS011;65301;46.666;20.110;2024-02-28T10:02:17;11.10;;;7.20;;
76463;SDS011;65301;46.666;20.110;2024-02-28T10:05:22;11.87;;;7.13;;
76463;SDS011;65301;46.666;20.110;2024-02-28T10:08:28;12.90;;;6.47;;
76463;SDS011;65301;46.666;20.110;2024-02-28T10:11:30;14.52;;;7.55;;
76463;SDS011;65301;46.666;20.110;2024-02-28T10:14:32;15.10;;;6.93;;
76463;SDS011;65301;46.666;20.110;2024-02-28T10:17:34;11.40;;;6.73;;
76463;SDS011;65301;46.666;20.110;2024-02-28T10:20:36;14.73;;;6.67;;
76463;SDS011;65301;46.666;20.110;2024-02-28T10:23:38;13.02;;;7.90;;
76463;SDS011;65301;46.666;20.110;2024-02-28T10:26:41;15.80;;;7.07;;
76463;SDS011;65301;46.666;20.110;2024-02-28T10:29:45;10.25;;;6.82;;
76463;SDS011;65301;46.666;20.110;2024-02-28T10:32:48;9.87;;;6.70;;
76463;SDS011;65301;46.666;20.110;2024-02-28T10:35:51;10.03;;;6.90;;
76463;SDS011;65301;46.666;20.110;2024-02-28T10:38:54;15.27;;;7.13;;
76463;SDS011;65301;46.666;20.110;2024-02-28T10:41:57;11.88;;;7.30;;
76463;SDS011;65301;46.666;20.110;2024-02-28T10:45:02;11.63;;;6.85;;
76463;SDS011;65301;46.666;20.110;2024-02-28T10:48:22;12.63;;;7.03;;
76463;SDS011;65301;46.666;20.110;2024-02-28T10:51:26;16.57;;;6.67;;
76463;SDS011;65301;46.666;20.110;2024-02-28T10:54:28;15.30;;;7.10;;
76463;SDS011;65301;46.666;20.110;2024-02-28T10:57:32;15.32;;;7.38;;
76463;SDS011;65301;46.666;20.110;2024-02-28T11:00:35;12.27;;;6.72;;
76463;SDS011;65301;46.666;20.110;2024-02-28T11:03:39;15.07;;;6.70;;
76463;SDS011;65301;46.666;20.110;2024-02-28T11:06:48;14.20;;;7.27;;
76463;SDS011;65301;46.666;20.110;2024-02-28T11:09:54;11.38;;;6.53;;
76463;SDS011;65301;46.666;20.110;2024-02-28T11:12:57;10.93;;;6.35;;
76463;SDS011;65301;46.666;20.110;2024-02-28T11:16:08;11.25;;;6.50;;
76463;SDS011;65301;46.666;20.110;2024-02-28T11:19:21;13.23;;;6.60;;
76463;SDS011;65301;46.666;20.110;2024-02-28T11:22:28;12.70;;;6.33;;
76463;SDS011;65301;46.666;20.110;2024-02-28T11:25:31;13.32;;;6.50;;
76463;SDS011;65301;46.666;20.110;2024-02-28T11:28:33;14.98;;;6.45;;
76463;SDS011;65301;46.666;20.110;2024-02-28T11:31:35;14.23;;;7.20;;
76463;SDS011;65301;46.666;20.110;2024-02-28T11:34:37;11.67;;;7.00;;
76463;SDS011;65301;46.666;20.110;2024-02-28T11:37:44;10.07;;;6.50;;
76463;SDS011;65301;46.666;20.110;2024-02-28T11:40:48;9.93;;;6.10;;
76463;SDS011;65301;46.666;20.110;2024-02-28T11:43:51;14.77;;;7.43;;
76463;SDS011;65301;46.666;20.110;2024-02-28T11:46:53;13.80;;;7.55;;
76463;SDS011;65301;46.666;20.110;2024-02-28T11:49:58;12.40;;;6.90;;
76463;SDS011;65301;46.666;20.110;2024-02-28T11:53:01;13.07;;;7.03;;
76463;SDS011;65301;46.666;20.110;2024-02-28T11:56:04;14.55;;;7.20;;
76463;SDS011;65301;46.666;20.110;2024-02-28T11:59:15;14.35;;;6.78;;
76463;SDS011;65301;46.666;20.110;2024-02-28T12:02:17;11.85;;;6.45;;
76463;SDS011;65301;46.666;20.110;2024-02-28T12:05:22;13.23;;;6.60;;
76463;SDS011;65301;46.666;20.110;2024-02-28T12:08:25;15.23;;;6.87;;
76463;SDS011;65301;46.666;20.110;2024-02-28T12:11:31;13.68;;;6.57;;
76463;SDS011;65301;46.666;20.110;2024-02-28T12:14:36;11.45;;;6.03;;
76463;SDS011;65301;46.666;20.110;2024-02-28T12:17:39;11.25;;;6.53;;
76463;SDS011;65301;46.666;20.110;2024-02-28T12:20:43;12.73;;;6.90;;
76463;SDS011;65301;46.666;20.110;2024-02-28T12:23:47;12.93;;;6.13;;
76463;SDS011;65301;46.666;20.110;2024-02-28T12:26:52;14.82;;;7.10;;
76463;SDS011;65301;46.666;20.110;2024-02-28T12:29:54;13.93;;;6.93;;
76463;SDS011;65301;46.666;20.110;2024-02-28T12:32:56;12.00;;;6.28;;
76463;SDS011;65301;46.666;20.110;2024-02-28T12:35:58;11.60;;;6.70;;
76463;SDS011;65301;46.666;20.110;2024-02-28T12:39:02;13.70;;;6.27;;
76463;SDS011;65301;46.666;20.110;2024-02-28T12:42:07;11.80;;;6.07;;
76463;SDS011;65301;46.666;20.110;2024-02-28T12:45:10;11.05;;;5.90;;
76463;SDS011;65301;46.666;20.110;2024-02-28T12:48:15;13.63;;;6.22;;
76463;SDS011;65301;46.666;20.110;2024-02-28T12:51:34;15.90;;;6.60;;
76463;SDS011;65301;46.666;20.110;2024-02-28T12:54:50;9.30;;;6.10;;
76463;SDS011;65301;46.666;20.110;2024-02-28T12:57:58;11.43;;;6.07;;
76463;SDS011;65301;46.666;20.110;2024-02-28T13:01:02;16.30;;;6.60;;
76463;SDS011;65301;46.666;20.110;2024-02-28T13:04:04;11.27;;;6.20;;
76463;SDS011;65301;46.666;20.110;2024-02-28T13:07:06;13.13;;;6.40;;
76463;SDS011;65301;46.666;20.110;2024-02-28T13:10:08;16.07;;;6.57;;
76463;SDS011;65301;46.666;20.110;2024-02-28T13:13:11;13.30;;;6.40;;
76463;SDS011;65301;46.666;20.110;2024-02-28T13:16:14;13.43;;;6.32;;
76463;SDS011;65301;46.666;20.110;2024-02-28T13:19:22;10.73;;;6.20;;
76463;SDS011;65301;46.666;20.110;2024-02-28T13:22:26;11.83;;;6.57;;
76463;SDS011;65301;46.666;20.110;2024-02-28T13:25:28;9.93;;;5.77;;
76463;SDS011;65301;46.666;20.110;2024-02-28T13:28:30;11.88;;;6.10;;
76463;SDS011;65301;46.666;20.110;2024-02-28T13:31:32;13.75;;;6.28;;
76463;SDS011;65301;46.666;20.110;2024-02-28T13:34:34;10.77;;;6.18;;
76463;SDS011;65301;46.666;20.110;2024-02-28T13:37:36;11.83;;;5.40;;
76463;SDS011;65301;46.666;20.110;2024-02-28T13:40:38;9.53;;;5.90;;
76463;SDS011;65301;46.666;20.110;2024-02-28T13:43:40;11.18;;;6.68;;
76463;SDS011;65301;46.666;20.110;2024-02-28T13:46:42;11.07;;;6.07;;
76463;SDS011;65301;46.666;20.110;2024-02-28T13:49:44;10.88;;;6.13;;
76463;SDS011;65301;46.666;20.110;2024-02-28T13:52:46;12.70;;;6.70;;
76463;SDS011;65301;46.666;20.110;2024-02-28T13:55:48;12.53;;;5.90;;
76463;SDS011;65301;46.666;20.110;2024-02-28T13:58:50;9.02;;;5.60;;
76463;SDS011;65301;46.666;20.110;2024-02-28T14:01:57;11.40;;;6.60;;
76463;SDS011;65301;46.666;20.110;2024-02-28T14:05:01;9.15;;;5.53;;
76463;SDS011;65301;46.666;20.110;2024-02-28T14:08:03;10.50;;;5.73;;
76463;SDS011;65301;46.666;20.110;2024-02-28T14:11:06;9.80;;;5.77;;
76463;SDS011;65301;46.666;20.110;2024-02-28T14:14:08;9.57;;;5.70;;
76463;SDS011;65301;46.666;20.110;2024-02-28T14:17:13;10.40;;;5.28;;
76463;SDS011;65301;46.666;20.110;2024-02-28T14:20:15;9.45;;;5.65;;
76463;SDS011;65301;46.666;20.110;2024-02-28T14:23:17;9.93;;;5.73;;
76463;SDS011;65301;46.666;20.110;2024-02-28T14:26:19;9.40;;;5.63;;
76463;SDS011;65301;46.666;20.110;2024-02-28T14:29:21;10.15;;;5.07;;
76463;SDS011;65301;46.666;20.110;2024-02-28T14:32:23;12.70;;;5.53;;
76463;SDS011;65301;46.666;20.110;2024-02-28T14:35:24;10.05;;;5.13;;
76463;SDS011;65301;46.666;20.110;2024-02-28T14:38:26;12.73;;;5.80;;
76463;SDS011;65301;46.666;20.110;2024-02-28T14:41:28;11.23;;;5.13;;
76463;SDS011;65301;46.666;20.110;2024-02-28T14:44:30;20.77;;;10.43;;
76463;SDS011;65301;46.666;20.110;2024-02-28T14:47:32;11.35;;;5.47;;
76463;SDS011;65301;46.666;20.110;2024-02-28T14:50:35;8.07;;;4.78;;
76463;SDS011;65301;46.666;20.110;2024-02-28T14:53:37;10.83;;;5.07;;
76463;SDS011;65301;46.666;20.110;2024-02-28T14:56:39;9.60;;;4.87;;
76463;SDS011;65301;46.666;20.110;2024-02-28T14:59:41;8.70;;;4.57;;
76463;SDS011;65301;46.666;20.110;2024-02-28T15:02:43;8.88;;;4.60;;
76463;SDS011;65301;46.666;20.110;2024-02-28T15:05:46;19.05;;;8.05;;
76463;SDS011;65301;46.666;20.110;2024-02-28T15:08:50;15.23;;;5.10;;
76463;SDS011;65301;46.666;20.110;2024-02-28T15:11:51;12.23;;;5.50;;
76463;SDS011;65301;46.666;20.110;2024-02-28T15:14:54;14.88;;;5.95;;
76463;SDS011;65301;46.666;20.110;2024-02-28T15:17:56;12.40;;;6.20;;
76463;SDS011;65301;46.666;20.110;2024-02-28T15:20:59;12.50;;;5.95;;
76463;SDS011;65301;46.666;20.110;2024-02-28T15:24:03;8.67;;;5.40;;
76463;SDS011;65301;46.666;20.110;2024-02-28T15:27:06;9.20;;;6.03;;
76463;SDS011;65301;46.666;20.110;2024-02-28T15:30:08;13.32;;;5.35;;
76463;SDS011;65301;46.666;20.110;2024-02-28T15:33:12;10.93;;;5.50;;
76463;SDS011;65301;46.666;20.110;2024-02-28T15:36:14;15.35;;;5.90;;
76463;SDS011;65301;46.666;20.110;2024-02-28T15:39:16;14.13;;;6.27;;
76463;SDS011;65301;46.666;20.110;2024-02-28T15:42:18;15.07;;;5.80;;
76463;SDS011;65301;46.666;20.110;2024-02-28T15:45:20;13.98;;;6.57;;
76463;SDS011;65301;46.666;20.110;2024-02-28T15:48:22;15.85;;;7.47;;
76463;SDS011;65301;46.666;20.110;2024-02-28T15:51:24;16.02;;;7.60;;
76463;SDS011;65301;46.666;20.110;2024-02-28T15:54:26;17.00;;;9.20;;
76463;SDS011;65301;46.666;20.110;2024-02-28T15:57:28;18.90;;;11.17;;
76463;SDS011;65301;46.666;20.110;2024-02-28T16:00:30;23.42;;;11.80;;
76463;SDS011;65301;46.666;20.110;2024-02-28T16:03:32;22.73;;;11.88;;
76463;SDS011;65301;46.666;20.110;2024-02-28T16:06:34;15.70;;;9.75;;
76463;SDS011;65301;46.666;20.110;2024-02-28T16:09:40;14.90;;;8.17;;
76463;SDS011;65301;46.666;20.110;2024-02-28T16:12:44;17.10;;;8.23;;
76463;SDS011;65301;46.666;20.110;2024-02-28T16:15:46;14.35;;;8.73;;
76463;SDS011;65301;46.666;20.110;2024-02-28T16:18:48;13.95;;;8.73;;
76463;SDS011;65301;46.666;20.110;2024-02-28T16:21:51;15.45;;;6.68;;
76463;SDS011;65301;46.666;20.110;2024-02-28T16:24:53;17.70;;;7.37;;
76463;SDS011;65301;46.666;20.110;2024-02-28T16:27:55;13.40;;;7.07;;
76463;SDS011;65301;46.666;20.110;2024-02-28T16:30:57;17.33;;;8.10;;
76463;SDS011;65301;46.666;20.110;2024-02-28T16:34:01;32.40;;;13.48;;
76463;SDS011;65301;46.666;20.110;2024-02-28T16:37:03;28.52;;;12.20;;
76463;SDS011;65301;46.666;20.110;2024-02-28T16:40:05;15.37;;;7.63;;
76463;SDS011;65301;46.666;20.110;2024-02-28T16:43:08;17.73;;;7.87;;
76463;SDS011;65301;46.666;20.110;2024-02-28T16:46:11;15.85;;;7.93;;
76463;SDS011;65301;46.666;20.110;2024-02-28T16:49:13;15.73;;;8.60;;
76463;SDS011;65301;46.666;20.110;2024-02-28T16:52:18;14.90;;;7.35;;
76463;SDS011;65301;46.666;20.110;2024-02-28T16:55:19;18.80;;;8.83;;
76463;SDS011;65301;46.666;20.110;2024-02-28T16:58:21;21.30;;;10.27;;
76463;SDS011;65301;46.666;20.110;2024-02-28T17:01:23;19.75;;;10.25;;
76463;SDS011;65301;46.666;20.110;2024-02-28T17:04:26;24.83;;;9.60;;
76463;SDS011;65301;46.666;20.110;2024-02-28T17:07:29;27.45;;;13.85;;
76463;SDS011;65301;46.666;20.110;2024-02-28T17:10:32;40.63;;;19.93;;
76463;SDS011;65301;46.666;20.110;2024-02-28T17:13:34;40.60;;;22.23;;
76463;SDS011;65301;46.666;20.110;2024-02-28T17:16:36;49.88;;;26.83;;
76463;SDS011;65301;46.666;20.110;2024-02-28T17:19:39;33.80;;;17.92;;
76463;SDS011;65301;46.666;20.110;2024-02-28T17:22:40;27.38;;;14.05;;
76463;SDS011;65301;46.666;20.110;2024-02-28T17:25:42;26.70;;;13.47;;
76463;SDS011;65301;46.666;20.110;2024-02-28T17:28:44;23.97;;;14.03;;
76463;SDS011;65301;46.666;20.110;2024-02-28T17:31:46;32.53;;;17.55;;
76463;SDS011;65301;46.666;20.110;2024-02-28T17:34:48;28.45;;;15.73;;
76463;SDS011;65301;46.666;20.110;2024-02-28T17:37:53;39.70;;;20.92;;
76463;SDS011;65301;46.666;20.110;2024-02-28T17:40:54;37.70;;;21.40;;
76463;SDS011;65301;46.666;20.110;2024-02-28T17:43:56;40.03;;;20.13;;
76463;SDS011;65301;46.666;20.110;2024-02-28T17:46:58;38.13;;;21.40;;
76463;SDS011;65301;46.666;20.110;2024-02-28T17:50:00;47.90;;;23.23;;